Birmingham, AL (35201)

2:16 PM CST on December 06, 2016 (GMT -0600)
UAB HHB | | Change Station

Elev 617 ft 33.50 °N, 86.81 °W | Updated 37 seconds ago

Overcast
Overcast
54.5 °F
Feels Like 54.5 °F
N
12.0
Wind Variable Wind from ESE
Gusts 19.0 mph

Today
High -- | Low -- °F
--% Chance of Precip.
Yesterday
High -- | Low -- °F
Precip. -- in
Pressure 29.85 in
Visibility 10.0 miles
Clouds Mostly Cloudy 1000 ft
Overcast 1500 ft
Dew Point 51 °F
Humidity 87%
Rainfall 0.17 in
Snow Depth Not available.
6:37 AM 4:39 PM
Waxing Crescent, 44% visible
METAR KBHM 061953Z 26011KT 10SM BKN010 OVC015 12/11 A2985 RMK AO2 CIG 008V013 SLP106 T01220111
Pressure 29.85 in
Visibility 10.0 miles
Clouds Mostly Cloudy 1000 ft
Overcast 1500 ft
Dew Point 51 °F
Humidity 87%
Rainfall 0.17 in
Snow Depth Not available.
6:37 AM 4:39 PM
Waxing Crescent, 44% visible
METAR KBHM 061953Z 26011KT 10SM BKN010 OVC015 12/11 A2985 RMK AO2 CIG 008V013 SLP106 T01220111

10-Day Weather Forecast

Almanac

Astronomy

Dec. 06, 2016 Rise Set
Actual Time
Civil Twilight
Nautical Twilight
Astronomical Twilight
Moon
Length of Visible Light
Length of Day
Tomorrow will be .
, % of the Moon is Illuminated

Today's Extremes

State Highs State Lows

Community

WunderPhotos

Upload Photos

1,956,020 photos uploaded!

WunderBlog® & News

Nearby

Air Quality

  Air Quality AQ Index Pollutant
Not available.

Snow Depth

Station Depth Elevation

Earthquake Activity

City Distance Mag. Time & Date
Minimum magnitude displayed is 2.5.

Coastal Water Temperatures

Place Temperature

Stations

Nearby Weather Stations

Station Location Temp. Windchill Dew Point Humidity Wind Precip. Elev Updated Type
                   

Watches & Warnings

There are currently no watches in effect.